Time;durP1;ratioP1;P1;durP2;ratioP2;P2;SDS_P1;SDS_P2;PMS_P1;PMS_P2;Temp;Humidity;BMP_temperature;BMP_pressure;BME280_temperature;BME280_humidity;BME280_pressure;Samples;Min_cycle;Max_cycle;Signal;HPM_P1;HPM_P2
2021/01/17 00:01:54;;;;;;;24.70;17.17;;;-1.10;99.90;;;;;;4923643;29;20536;-92
2021/01/17 00:04:21;;;;;;;27.33;18.10;;;-1.10;99.90;;;;;;4923987;29;20464;-92
2021/01/17 00:06:48;;;;;;;25.93;17.83;;;-1.10;99.90;;;;;;4923661;29;20486;-92
2021/01/17 00:09:14;;;;;;;25.83;16.60;;;-1.00;99.90;;;;;;4923455;29;20461;-92
2021/01/17 00:11:41;;;;;;;23.33;16.57;;;-1.10;99.90;;;;;;4923246;29;20460;-93
2021/01/17 00:14:08;;;;;;;24.97;16.70;;;-1.00;99.90;;;;;;4923825;29;21027;-92
2021/01/17 00:16:39;;;;;;;28.90;18.20;;;-1.00;99.90;;;;;;4923365;29;20515;-92
2021/01/17 00:19:07;;;;;;;27.07;17.80;;;-1.00;99.90;;;;;;4923107;29;20465;-92
2021/01/17 00:21:34;;;;;;;27.87;18.67;;;-1.00;99.90;;;;;;4923228;29;20504;-92
2021/01/17 00:24:04;;;;;;;27.97;17.57;;;-1.00;99.90;;;;;;4923550;29;20575;-92
2021/01/17 00:26:35;;;;;;;27.03;16.83;;;-1.00;99.90;;;;;;4924036;29;20531;-92
2021/01/17 00:29:02;;;;;;;27.97;18.27;;;-1.10;99.90;;;;;;4923558;29;20476;-92
2021/01/17 00:31:33;;;;;;;29.57;17.43;;;-1.00;99.90;;;;;;4923086;29;20524;-92
2021/01/17 00:33:59;;;;;;;25.37;17.57;;;-1.10;99.90;;;;;;4923364;29;20480;-92
2021/01/17 00:36:36;;;;;;;28.23;18.00;;;-1.10;99.90;;;;;;4922650;29;20775;-92
2021/01/17 00:39:03;;;;;;;28.60;17.37;;;-1.10;99.90;;;;;;4922601;29;20464;-92
2021/01/17 00:41:30;;;;;;;26.37;18.03;;;-1.10;99.90;;;;;;4922784;29;20545;-92
2021/01/17 00:43:57;;;;;;;27.07;17.80;;;-1.00;99.90;;;;;;4923089;29;20473;-92
2021/01/17 00:46:24;;;;;;;21.90;15.77;;;-1.00;99.90;;;;;;4923447;29;20496;-92
2021/01/17 00:48:51;;;;;;;25.20;17.43;;;-1.10;99.90;;;;;;4922590;29;20895;-92
2021/01/17 00:51:19;;;;;;;29.80;19.23;;;-1.10;99.90;;;;;;4922503;29;20466;-92
2021/01/17 00:53:47;;;;;;;28.60;17.93;;;-1.10;99.90;;;;;;4922819;29;20472;-92
2021/01/17 00:56:13;;;;;;;29.30;19.87;;;-1.10;99.90;;;;;;4922895;29;20465;-92
2021/01/17 00:58:41;;;;;;;30.60;18.73;;;-1.10;99.90;;;;;;4922610;29;20453;-92
2021/01/17 01:01:08;;;;;;;26.83;18.53;;;-1.10;99.90;;;;;;4922779;29;20503;-92
2021/01/17 01:03:35;;;;;;;28.43;18.60;;;-1.10;99.90;;;;;;4922837;29;20476;-92
2021/01/17 01:06:01;;;;;;;27.17;17.70;;;-1.10;99.90;;;;;;4922252;29;20472;-92
2021/01/17 01:08:28;;;;;;;25.80;18.10;;;-1.10;99.90;;;;;;4922044;29;20481;-92
2021/01/17 01:10:56;;;;;;;29.20;18.60;;;-1.10;99.90;;;;;;4919602;29;20770;-92
2021/01/17 01:13:23;;;;;;;30.17;18.67;;;-1.10;99.90;;;;;;4903300;29;20959;-91
2021/01/17 01:15:52;;;;;;;28.20;18.43;;;-1.00;99.90;;;;;;4903707;29;20477;-92
2021/01/17 01:18:21;;;;;;;27.73;17.10;;;-1.00;99.90;;;;;;4903399;29;20494;-91
2021/01/17 01:20:49;;;;;;;27.10;17.87;;;-1.00;99.90;;;;;;4903176;29;20904;-92
2021/01/17 01:23:21;;;;;;;27.90;18.10;;;-1.00;99.90;;;;;;4902496;29;20477;-92
2021/01/17 01:25:49;;;;;;;27.60;17.07;;;-1.00;99.90;;;;;;4903248;29;20478;-92
2021/01/17 01:28:22;;;;;;;29.80;19.23;;;-1.00;99.90;;;;;;4903267;29;20484;-91
2021/01/17 01:30:49;;;;;;;25.47;18.37;;;-1.00;99.90;;;;;;4903230;29;20462;-92
2021/01/17 01:33:16;;;;;;;27.10;17.27;;;-1.00;99.90;;;;;;4903462;29;20973;-92
2021/01/17 01:35:44;;;;;;;25.97;17.43;;;-1.00;99.90;;;;;;4903231;29;20506;-92
2021/01/17 01:38:10;;;;;;;29.90;19.70;;;-1.00;99.90;;;;;;4903378;29;20716;-92
2021/01/17 01:40:54;;;;;;;26.17;17.30;;;-1.00;99.90;;;;;;4902956;29;20497;-91
2021/01/17 01:43:37;;;;;;;28.57;18.77;;;-1.10;99.90;;;;;;4921027;29;20799;-91
2021/01/17 01:46:17;;;;;;;29.07;19.57;;;-1.00;99.90;;;;;;4921955;29;20512;-92
2021/01/17 01:48:47;;;;;;;25.70;19.20;;;-1.00;99.90;;;;;;4921461;29;20465;-92
2021/01/17 01:51:16;;;;;;;30.57;20.37;;;-1.10;99.90;;;;;;4921252;29;20919;-92
2021/01/17 01:53:44;;;;;;;28.20;19.03;;;-1.10;99.90;;;;;;4921798;29;20879;-92
2021/01/17 01:56:13;;;;;;;30.10;19.10;;;-1.10;99.90;;;;;;4918142;29;20951;-92
2021/01/17 01:58:42;;;;;;;29.43;19.13;;;-1.10;99.90;;;;;;4902876;29;20444;-92
2021/01/17 02:01:11;;;;;;;24.93;17.07;;;-1.10;99.90;;;;;;4902761;29;20472;-92
2021/01/17 02:03:38;;;;;;;28.43;18.90;;;-1.10;99.90;;;;;;4903051;29;20510;-91
2021/01/17 02:06:11;;;;;;;29.63;18.90;;;-1.10;99.90;;;;;;4902367;29;20522;-89
2021/01/17 02:09:04;;;;;;;30.20;19.27;;;-1.10;99.90;;;;;;4902490;29;20796;-89
2021/01/17 02:11:44;;;;;;;31.73;19.43;;;-1.10;99.90;;;;;;4909434;29;20469;-89
2021/01/17 02:14:21;;;;;;;30.73;18.93;;;-1.10;99.90;;;;;;4921647;29;20476;-89
2021/01/17 02:16:48;;;;;;;28.03;18.53;;;-1.20;99.90;;;;;;4921868;29;20564;-89
2021/01/17 02:19:19;;;;;;;27.70;19.70;;;-1.10;99.90;;;;;;4920753;29;20476;-89
2021/01/17 02:21:55;;;;;;;29.27;19.43;;;-1.10;99.90;;;;;;4920948;29;20528;-89
2021/01/17 02:24:30;;;;;;;28.00;18.67;;;-1.10;99.90;;;;;;4921593;29;20499;-89
2021/01/17 02:26:58;;;;;;;30.50;17.60;;;-1.10;99.90;;;;;;4921329;29;20495;-89
2021/01/17 02:29:25;;;;;;;32.37;20.17;;;-1.10;99.90;;;;;;4920726;29;20457;-89
2021/01/17 02:31:56;;;;;;;29.23;18.60;;;-1.10;99.90;;;;;;4920228;29;20883;-89
2021/01/17 02:34:25;;;;;;;28.87;19.27;;;-1.10;99.90;;;;;;4920751;29;20539;-89
2021/01/17 02:37:02;;;;;;;32.93;18.67;;;-1.00;99.90;;;;;;4921105;29;20493;-89
2021/01/17 02:39:38;;;;;;;32.00;19.77;;;-1.00;99.90;;;;;;4920764;29;20501;-89
2021/01/17 02:42:06;;;;;;;29.53;19.57;;;-1.10;99.90;;;;;;4921042;29;20560;-89
2021/01/17 02:44:34;;;;;;;23.80;16.97;;;-1.10;99.90;;;;;;4920567;29;20804;-89
2021/01/17 02:47:02;;;;;;;28.80;18.50;;;-1.10;99.90;;;;;;4921327;29;20532;-89
2021/01/17 02:49:30;;;;;;;27.20;19.33;;;-1.10;99.90;;;;;;4921280;29;20464;-89
2021/01/17 02:51:58;;;;;;;28.47;19.27;;;-1.10;99.90;;;;;;4920563;29;20491;-89
2021/01/17 02:54:31;;;;;;;31.20;20.00;;;-1.10;99.90;;;;;;4920909;29;20536;-89
2021/01/17 02:57:03;;;;;;;31.10;20.50;;;-1.10;99.90;;;;;;4921007;29;20521;-89
2021/01/17 02:59:34;;;;;;;33.10;19.87;;;-1.10;99.90;;;;;;4920820;29;20476;-89
2021/01/17 03:02:05;;;;;;;29.03;18.40;;;-1.00;99.90;;;;;;4920812;29;20500;-89
2021/01/17 03:04:38;;;;;;;30.00;18.83;;;-1.00;99.90;;;;;;4921126;29;20547;-89
2021/01/17 03:07:09;;;;;;;28.27;19.37;;;-1.00;99.90;;;;;;4920505;29;20910;-89
2021/01/17 03:09:36;;;;;;;33.57;19.80;;;-1.00;99.90;;;;;;4920895;29;20479;-89
2021/01/17 03:12:05;;;;;;;32.97;20.87;;;-1.00;99.90;;;;;;4909352;29;20552;-89
2021/01/17 03:14:36;;;;;;;28.80;19.90;;;-1.00;99.90;;;;;;4901800;29;20458;-89
2021/01/17 03:17:04;;;;;;;33.93;20.50;;;-1.10;99.90;;;;;;4902180;29;20560;-89
2021/01/17 03:19:31;;;;;;;31.33;19.20;;;-1.10;99.90;;;;;;4902424;29;20565;-89
2021/01/17 03:21:57;;;;;;;32.73;19.60;;;-1.10;99.90;;;;;;4901429;29;20492;-89
2021/01/17 03:24:25;;;;;;;30.63;19.20;;;-1.10;99.90;;;;;;4900868;29;20530;-89
2021/01/17 03:26:52;;;;;;;36.30;20.67;;;-1.10;99.90;;;;;;4902178;29;20449;-89
2021/01/17 03:29:19;;;;;;;30.90;19.30;;;-1.10;99.90;;;;;;4902962;29;20911;-88
2021/01/17 03:31:47;;;;;;;27.80;19.43;;;-1.10;99.90;;;;;;4905607;29;20469;-89
2021/01/17 03:34:14;;;;;;;29.53;19.27;;;-1.10;99.90;;;;;;4905215;29;20860;-89
2021/01/17 03:36:41;;;;;;;31.23;19.10;;;-1.10;99.90;;;;;;4905494;29;20480;-89
2021/01/17 03:39:08;;;;;;;32.73;18.97;;;-1.10;99.90;;;;;;4905239;29;20626;-89
2021/01/17 03:41:35;;;;;;;31.53;19.60;;;-1.00;99.90;;;;;;4905538;29;20536;-89
2021/01/17 03:44:01;;;;;;;28.27;18.17;;;-0.90;99.90;;;;;;4905776;29;20480;-88
2021/01/17 03:46:28;;;;;;;30.67;21.10;;;-0.90;99.90;;;;;;4905431;29;20963;-89
2021/01/17 03:48:56;;;;;;;29.43;18.77;;;-1.00;99.90;;;;;;4911442;29;20515;-89
2021/01/17 03:51:23;;;;;;;33.73;19.67;;;-1.00;99.90;;;;;;4924611;29;20552;-89
2021/01/17 03:53:50;;;;;;;30.90;19.70;;;-1.00;99.90;;;;;;4924218;29;20736;-89
2021/01/17 03:56:17;;;;;;;33.77;19.33;;;-0.90;99.90;;;;;;4924371;29;20473;-89
2021/01/17 03:58:44;;;;;;;34.73;20.40;;;-1.00;99.90;;;;;;4923527;29;20524;-88
2021/01/17 04:01:11;;;;;;;29.87;20.27;;;-1.00;99.90;;;;;;4923990;29;20568;-89
2021/01/17 04:03:38;;;;;;;30.50;22.50;;;-0.90;99.90;;;;;;4923951;29;20468;-89
2021/01/17 04:06:07;;;;;;;33.80;21.07;;;-0.90;99.90;;;;;;4923767;29;20563;-88
2021/01/17 04:08:33;;;;;;;31.23;19.70;;;-0.90;99.90;;;;;;4923647;29;20468;-89
2021/01/17 04:11:00;;;;;;;33.70;20.00;;;-0.90;99.90;;;;;;4923885;29;20469;-89
2021/01/17 04:13:27;;;;;;;32.40;19.53;;;-0.90;99.90;;;;;;4923860;29;20907;-89
2021/01/17 04:15:54;;;;;;;36.47;20.87;;;-0.90;99.90;;;;;;4923085;29;20457;-88
2021/01/17 04:18:20;;;;;;;32.30;20.63;;;-0.90;99.90;;;;;;4923551;29;20461;-89
2021/01/17 04:20:48;;;;;;;32.50;19.63;;;-0.90;99.90;;;;;;4923642;29;20469;-88
2021/01/17 04:23:16;;;;;;;33.93;21.07;;;-0.90;99.90;;;;;;4923496;29;20588;-89
2021/01/17 04:25:43;;;;;;;33.27;21.00;;;-1.00;99.90;;;;;;4923050;29;20744;-89
2021/01/17 04:28:10;;;;;;;35.63;20.73;;;-1.00;99.90;;;;;;4922907;29;20520;-88
2021/01/17 04:30:38;;;;;;;38.33;21.00;;;-0.90;99.90;;;;;;4923128;29;20458;-88
2021/01/17 04:33:05;;;;;;;30.97;19.43;;;-1.00;99.90;;;;;;4923399;29;20563;-88
2021/01/17 04:35:32;;;;;;;30.40;20.90;;;-1.00;99.90;;;;;;4923409;29;20481;-89
2021/01/17 04:37:59;;;;;;;29.67;20.57;;;-0.90;99.90;;;;;;4922811;29;20461;-89
2021/01/17 04:40:30;;;;;;;33.80;21.63;;;-0.90;99.90;;;;;;4922836;29;20931;-89
2021/01/17 04:43:07;;;;;;;37.17;21.90;;;-0.80;99.90;;;;;;4923110;29;20819;-88
2021/01/17 04:45:35;;;;;;;34.00;20.13;;;-0.80;99.90;;;;;;4922884;29;20460;-88
2021/01/17 04:48:03;;;;;;;36.10;21.77;;;-0.90;99.90;;;;;;4923496;29;20496;-88
2021/01/17 04:50:31;;;;;;;34.40;20.10;;;-0.90;99.90;;;;;;4904225;29;20464;-89
2021/01/17 04:53:03;;;;;;;35.30;21.37;;;-0.80;99.90;;;;;;4904528;29;20478;-89
2021/01/17 04:55:34;;;;;;;38.20;22.50;;;-0.80;99.90;;;;;;4904355;29;20473;-88
2021/01/17 04:58:18;;;;;;;39.20;22.30;;;-0.80;99.90;;;;;;4903738;29;20545;-88
2021/01/17 05:00:56;;;;;;;39.37;22.80;;;-0.90;99.90;;;;;;4904039;29;20572;-88
2021/01/17 05:03:45;;;;;;;36.97;22.47;;;-0.90;99.90;;;;;;4903756;29;20502;-89
2021/01/17 05:06:26;;;;;;;36.63;22.83;;;-0.90;99.90;;;;;;4903384;29;20486;-88
2021/01/17 05:09:00;;;;;;;41.57;23.60;;;-0.90;99.90;;;;;;4903627;29;20477;-88
2021/01/17 05:11:36;;;;;;;44.57;23.93;;;-0.90;99.90;;;;;;4911104;29;20453;-89
2021/01/17 05:14:11;;;;;;;39.27;24.30;;;-0.90;99.90;;;;;;4922044;29;20492;-89
2021/01/17 05:16:41;;;;;;;39.13;22.90;;;-0.90;99.90;;;;;;4922497;29;20974;-88
2021/01/17 05:19:12;;;;;;;39.50;24.30;;;-0.80;99.90;;;;;;4921967;29;20466;-89
2021/01/17 05:21:44;;;;;;;42.60;24.13;;;-0.80;99.90;;;;;;4922864;29;20532;-89
2021/01/17 05:24:13;;;;;;;39.07;22.83;;;-0.90;99.90;;;;;;4921879;29;20453;-89
2021/01/17 05:26:50;;;;;;;41.17;24.17;;;-0.90;99.90;;;;;;4922268;29;20909;-88
2021/01/17 05:29:19;;;;;;;42.37;23.07;;;-0.80;99.90;;;;;;4922617;29;20778;-89
2021/01/17 05:31:49;;;;;;;49.90;26.10;;;-0.80;99.90;;;;;;4922753;29;20839;-89
2021/01/17 05:34:19;;;;;;;40.50;24.27;;;-0.80;99.90;;;;;;4921452;29;20468;-88
2021/01/17 05:36:45;;;;;;;46.90;24.07;;;-0.80;99.90;;;;;;4922899;29;20538;-88
2021/01/17 05:39:13;;;;;;;48.73;25.47;;;-0.90;99.90;;;;;;4921826;29;20496;-88
2021/01/17 05:41:40;;;;;;;47.77;26.13;;;-0.90;99.90;;;;;;4921958;29;20587;-88
2021/01/17 05:44:07;;;;;;;49.60;25.60;;;-0.90;99.90;;;;;;4921591;29;20551;-88
2021/01/17 05:46:34;;;;;;;50.27;27.40;;;-0.80;99.90;;;;;;4921849;29;20496;-88
2021/01/17 05:49:20;;;;;;;47.73;24.20;;;-0.80;99.90;;;;;;4921363;29;20548;-88
2021/01/17 05:51:47;;;;;;;48.90;27.47;;;-0.90;99.90;;;;;;4921991;29;20786;-88
2021/01/17 05:54:14;;;;;;;43.30;26.47;;;-0.90;99.90;;;;;;4921691;29;20473;-88
2021/01/17 05:56:43;;;;;;;46.83;25.07;;;-0.90;99.90;;;;;;4921943;29;20806;-88
2021/01/17 05:59:09;;;;;;;47.97;26.63;;;-0.90;99.90;;;;;;4921770;29;20835;-88
2021/01/17 06:01:38;;;;;;;48.77;25.70;;;-0.90;99.90;;;;;;4921915;29;20548;-88
2021/01/17 06:04:11;;;;;;;52.03;27.00;;;-0.90;99.90;;;;;;4921770;29;20478;-88
2021/01/17 06:06:38;;;;;;;39.90;23.17;;;-0.90;99.90;;;;;;4921820;29;20497;-88
2021/01/17 06:09:05;;;;;;;54.37;26.80;;;-0.90;99.90;;;;;;4921937;29;20525;-88
2021/01/17 06:11:32;;;;;;;50.47;26.40;;;-0.90;99.90;;;;;;4914392;29;20541;-88
2021/01/17 06:14:01;;;;;;;51.50;26.37;;;-0.90;99.90;;;;;;4902645;29;20537;-88
2021/01/17 06:16:32;;;;;;;51.03;28.07;;;-0.90;99.90;;;;;;4902955;29;20621;-88
2021/01/17 06:19:00;;;;;;;50.27;26.67;;;-1.00;99.90;;;;;;4902395;29;20494;-88
2021/01/17 06:21:29;;;;;;;54.10;27.20;;;-0.90;99.90;;;;;;4902833;29;20474;-88
2021/01/17 06:23:57;;;;;;;54.20;29.17;;;-0.90;99.90;;;;;;4901660;29;20935;-88
2021/01/17 06:26:29;;;;;;;53.53;27.80;;;-0.80;99.90;;;;;;4902693;29;20572;-88
2021/01/17 06:28:56;;;;;;;48.37;25.63;;;-0.80;99.90;;;;;;4902411;29;20466;-88
2021/01/17 06:31:30;;;;;;;53.73;26.63;;;-0.90;99.90;;;;;;4902644;29;20474;-88
2021/01/17 06:34:07;;;;;;;53.13;27.70;;;-0.80;99.90;;;;;;4902197;29;20538;-88
2021/01/17 06:36:35;;;;;;;47.63;25.80;;;-0.90;99.90;;;;;;4902588;29;20470;-88
2021/01/17 06:39:03;;;;;;;54.73;29.23;;;-0.80;99.90;;;;;;4902063;29;20477;-88
2021/01/17 06:41:39;;;;;;;54.30;28.50;;;-0.80;99.90;;;;;;4902770;29;20529;-88
2021/01/17 06:44:10;;;;;;;55.93;28.60;;;-0.80;99.90;;;;;;4902181;29;20556;-88
2021/01/17 06:46:43;;;;;;;55.20;27.67;;;-0.80;99.90;;;;;;4902494;29;20474;-88
2021/01/17 06:49:20;;;;;;;50.23;29.27;;;-0.80;99.90;;;;;;4914023;29;20473;-88
2021/01/17 06:51:48;;;;;;;64.33;29.17;;;-0.90;99.90;;;;;;4918899;29;20595;-88
2021/01/17 06:54:17;;;;;;;58.93;30.90;;;-0.80;99.90;;;;;;4920559;29;20465;-88
2021/01/17 06:56:46;;;;;;;62.13;32.07;;;-0.80;99.90;;;;;;4920819;29;20450;-88
2021/01/17 06:59:13;;;;;;;53.87;29.23;;;-0.80;99.90;;;;;;4920285;29;20450;-88
2021/01/17 07:01:44;;;;;;;57.57;30.23;;;-0.80;99.90;;;;;;4920418;29;20833;-88
2021/01/17 07:04:31;;;;;;;50.87;27.33;;;-0.70;99.90;;;;;;4919212;29;20556;-88
2021/01/17 07:07:37;;;;;;;47.93;26.20;;;-0.80;99.90;;;;;;4923283;29;20518;-88
2021/01/17 07:10:05;;;;;;;64.70;33.00;;;-0.70;99.90;;;;;;4924242;29;20475;-88
2021/01/17 07:12:45;;;;;;;54.97;28.40;;;-0.70;99.90;;;;;;4923576;29;20453;-88
2021/01/17 07:15:13;;;;;;;57.77;28.60;;;-0.60;99.90;;;;;;4922417;29;20464;-88
2021/01/17 07:17:42;;;;;;;58.33;30.07;;;-0.60;99.90;;;;;;4924104;29;20463;-88
2021/01/17 07:20:10;;;;;;;58.47;27.47;;;-0.60;99.90;;;;;;4922116;29;20543;-89
2021/01/17 07:22:38;;;;;;;51.93;27.63;;;-0.60;99.90;;;;;;4923930;29;20489;-89
2021/01/17 07:25:08;;;;;;;52.17;25.80;;;-0.50;99.90;;;;;;4924184;29;20468;-88
2021/01/17 07:28:06;;;;;;;52.47;27.97;;;-0.50;99.90;;;;;;4924519;29;20529;-88
2021/01/17 07:30:52;;;;;;;55.40;26.43;;;-0.50;99.90;;;;;;4923146;29;20461;-89
2021/01/17 07:33:24;;;;;;;54.67;27.50;;;-0.50;99.90;;;;;;4923225;29;20488;-88
2021/01/17 07:35:52;;;;;;;49.53;26.40;;;-0.50;99.90;;;;;;4921700;29;20500;-88
2021/01/17 07:38:21;;;;;;;50.90;26.47;;;-0.50;99.90;;;;;;4922813;29;20910;-88
2021/01/17 07:40:56;;;;;;;55.60;28.10;;;-0.50;99.90;;;;;;4920311;29;20563;-89
2021/01/17 07:43:28;;;;;;;53.10;25.77;;;-0.50;99.90;;;;;;4922794;29;20499;-88
2021/01/17 07:45:57;;;;;;;56.40;26.67;;;-0.60;99.90;;;;;;4922824;29;20468;-88
2021/01/17 07:48:26;;;;;;;49.63;26.50;;;-0.50;99.90;;;;;;4921691;29;20473;-89
2021/01/17 07:50:55;;;;;;;55.90;24.63;;;-0.50;99.90;;;;;;4920499;29;20476;-88
2021/01/17 07:53:41;;;;;;;53.60;25.27;;;-0.50;99.90;;;;;;4915338;29;20564;-89
2021/01/17 07:56:11;;;;;;;53.77;24.97;;;-0.40;99.90;;;;;;4916909;29;20458;-88
2021/01/17 07:58:41;;;;;;;51.07;24.33;;;-0.50;99.90;;;;;;4919782;29;20491;-88
2021/01/17 08:01:40;;;;;;;52.40;25.00;;;-0.40;99.90;;;;;;4911903;29;20449;-88
2021/01/17 08:07:05;;;;;;;55.63;24.50;;;-0.40;99.90;;;;;;5144525;27;20531;-90
2021/01/17 08:09:49;;;;;;;51.37;24.60;;;-0.40;99.90;;;;;;5145866;27;20937;-90
2021/01/17 08:12:40;;;;;;;45.57;22.70;;;-0.40;99.90;;;;;;5147111;27;20890;-90
2021/01/17 08:15:22;;;;;;;47.17;23.20;;;-0.40;99.90;;;;;;5126825;27;20440;-90
2021/01/17 08:17:51;;;;;;;48.50;25.37;;;-0.30;99.90;;;;;;5141119;27;20501;-90
2021/01/17 08:20:35;;;;;;;47.37;25.60;;;-0.30;99.90;;;;;;5145247;27;20463;-90
2021/01/17 08:23:22;;;;;;;45.73;22.03;;;-0.30;99.90;;;;;;5144389;27;20443;-90
2021/01/17 08:25:55;;;;;;;51.63;28.33;;;-0.40;99.90;;;;;;5140435;27;20506;-90
2021/01/17 08:28:41;;;;;;;59.70;32.10;;;-0.40;99.90;;;;;;5153409;27;20463;-90
2021/01/17 08:31:41;;;;;;;66.97;40.23;;;-0.30;99.90;;;;;;5144088;27;20448;-90
2021/01/17 08:34:11;;;;;;;52.77;28.90;;;-0.30;99.90;;;;;;5143961;27;20455;-90
2021/01/17 08:36:39;;;;;;;47.90;25.70;;;-0.20;99.90;;;;;;5143798;27;20478;-90
2021/01/17 08:39:07;;;;;;;42.83;23.87;;;-0.20;99.90;;;;;;5145338;27;20468;-90
2021/01/17 08:41:35;;;;;;;44.63;23.23;;;-0.20;99.90;;;;;;5143494;27;20892;-92
2021/01/17 08:44:03;;;;;;;44.93;24.03;;;-0.20;99.90;;;;;;5146578;27;20451;-92
2021/01/17 08:46:41;;;;;;;43.93;24.93;;;-0.10;99.90;;;;;;5155500;27;20820;-92
2021/01/17 08:49:09;;;;;;;46.73;24.53;;;-0.10;99.90;;;;;;5155039;27;20429;-92
2021/01/17 08:51:38;;;;;;;47.43;24.10;;;-0.10;99.90;;;;;;5155527;27;20504;-92
2021/01/17 08:54:30;;;;;;;41.63;24.00;;;-0.10;99.90;;;;;;5155506;27;20551;-92
2021/01/17 08:57:01;;;;;;;38.60;23.33;;;-0.10;99.90;;;;;;5155422;27;20878;-92
2021/01/17 08:59:37;;;;;;;47.63;22.77;;;-0.10;99.90;;;;;;5156181;27;20521;-92
2021/01/17 09:02:06;;;;;;;42.43;22.07;;;-0.10;99.90;;;;;;5137348;27;20458;-92
2021/01/17 09:04:34;;;;;;;45.07;26.00;;;-0.10;99.90;;;;;;5155484;27;20469;-92
2021/01/17 09:07:07;;;;;;;39.37;22.10;;;-0.10;99.90;;;;;;5155834;27;20462;-92
2021/01/17 09:09:38;;;;;;;42.37;23.90;;;0.00;99.90;;;;;;5155376;27;20465;-92
2021/01/17 09:12:12;;;;;;;45.90;24.60;;;0.00;99.90;;;;;;5141710;27;20439;-92
2021/01/17 09:14:39;;;;;;;41.93;23.40;;;0.00;99.90;;;;;;5134520;28;20463;-92
2021/01/17 09:17:14;;;;;;;38.80;20.90;;;0.10;99.90;;;;;;5109638;28;20459;-92
2021/01/17 09:19:44;;;;;;;43.80;22.63;;;0.20;99.90;;;;;;5102954;28;20494;-92
2021/01/17 09:22:12;;;;;;;42.87;23.90;;;0.10;99.90;;;;;;5102526;28;20504;-92
2021/01/17 09:24:42;;;;;;;45.70;24.07;;;0.10;99.90;;;;;;5120593;28;20460;-92
2021/01/17 09:27:11;;;;;;;38.37;22.00;;;0.10;99.90;;;;;;5119227;28;20467;-92
2021/01/17 09:29:39;;;;;;;39.57;24.00;;;0.20;99.90;;;;;;5120932;28;20471;-92
2021/01/17 09:32:09;;;;;;;40.93;24.57;;;0.20;99.90;;;;;;5120785;28;20468;-92
2021/01/17 09:34:38;;;;;;;42.47;23.53;;;0.20;99.90;;;;;;5120580;28;20941;-92
2021/01/17 09:37:10;;;;;;;45.63;26.27;;;0.20;99.90;;;;;;5120142;28;20468;-92
2021/01/17 09:39:51;;;;;;;43.90;24.20;;;0.30;99.90;;;;;;5102138;28;20429;-92
2021/01/17 09:42:20;;;;;;;43.90;23.67;;;0.30;99.90;;;;;;5120133;28;20470;-92
2021/01/17 09:44:54;;;;;;;44.30;25.97;;;0.30;99.90;;;;;;5121207;28;20471;-92
2021/01/17 23:40:54;;;;;;;58.80;29.53;;;4.00;99.90;;;;;;655743;23;21993;-85
